Time;durP1;ratioP1;P1;durP2;ratioP2;P2;SDS_P1;SDS_P2;PMS_P1;PMS_P2;Temp;Humidity;BMP_temperature;BMP_pressure;BME280_temperature;BME280_humidity;BME280_pressure;Samples;Min_cycle;Max_cycle;Signal;HPM_P1;HPM_P2
2022/11/07 00:02:08;;;;;;;3.38;0.90;;;14.50;99.90;;;;;;5054977;28;20096;-59
2022/11/07 00:04:34;;;;;;;6.05;1.70;;;14.50;99.90;;;;;;5054792;28;20079;-59
2022/11/07 00:07:00;;;;;;;5.93;2.50;;;14.50;99.90;;;;;;5055359;28;20041;-59
2022/11/07 00:09:25;;;;;;;4.70;1.23;;;14.50;99.90;;;;;;5053400;28;20137;-61
2022/11/07 00:11:51;;;;;;;4.22;1.58;;;14.50;99.90;;;;;;5055109;28;20179;-61
2022/11/07 00:14:17;;;;;;;4.22;1.55;;;14.50;99.90;;;;;;5053723;28;20021;-60
2022/11/07 00:16:44;;;;;;;5.05;1.83;;;14.50;99.90;;;;;;5055080;28;20059;-59
2022/11/07 00:19:13;;;;;;;2.95;1.40;;;14.50;99.90;;;;;;5054494;28;20017;-60
2022/11/07 00:21:39;;;;;;;4.47;1.52;;;14.50;99.90;;;;;;5055137;28;20021;-60
2022/11/07 00:24:05;;;;;;;5.38;1.50;;;14.50;99.90;;;;;;5054387;28;20025;-60
2022/11/07 00:26:31;;;;;;;6.03;1.75;;;14.50;99.90;;;;;;5054208;28;20045;-60
2022/11/07 00:28:57;;;;;;;4.20;1.73;;;14.50;99.90;;;;;;5054762;28;20029;-59
2022/11/07 00:31:22;;;;;;;3.83;1.45;;;14.50;99.90;;;;;;5054697;28;20025;-62
2022/11/07 00:33:48;;;;;;;2.13;1.02;;;14.50;99.90;;;;;;5054139;28;20035;-60
2022/11/07 00:36:20;;;;;;;7.85;1.77;;;14.50;99.90;;;;;;5053097;28;20421;-66
2022/11/07 00:38:46;;;;;;;4.05;1.58;;;14.50;99.90;;;;;;5054240;28;20030;-69
2022/11/07 00:41:11;;;;;;;3.78;1.30;;;14.50;99.90;;;;;;5054512;28;20029;-62
2022/11/07 00:43:37;;;;;;;4.38;1.70;;;14.50;99.90;;;;;;5054624;28;20104;-63
2022/11/07 00:46:04;;;;;;;6.55;1.50;;;14.50;99.90;;;;;;5054090;28;20049;-60
2022/11/07 00:48:31;;;;;;;4.15;1.40;;;14.50;99.90;;;;;;5053961;28;20163;-60
2022/11/07 00:50:57;;;;;;;4.97;2.10;;;14.50;99.90;;;;;;5054280;28;20033;-59
2022/11/07 00:53:23;;;;;;;4.40;1.30;;;14.50;99.90;;;;;;5054069;28;20025;-59
2022/11/07 00:55:48;;;;;;;4.05;1.52;;;14.50;99.90;;;;;;5054217;28;20497;-68
2022/11/07 00:58:15;;;;;;;6.78;1.98;;;14.50;99.90;;;;;;5054270;28;20021;-66
2022/11/07 01:00:41;;;;;;;4.20;1.42;;;14.50;99.90;;;;;;5053781;28;20059;-59
2022/11/07 01:05:58;;;;;;;5.25;1.52;;;14.40;99.90;;;;;;5053922;28;20103;-60
2022/11/07 01:08:24;;;;;;;6.85;1.90;;;14.50;99.90;;;;;;5053733;28;20470;-59
2022/11/07 01:10:50;;;;;;;5.13;1.67;;;14.40;99.90;;;;;;5053831;28;20032;-60
2022/11/07 01:13:16;;;;;;;6.30;1.60;;;14.40;99.90;;;;;;5053834;28;20025;-67
2022/11/07 01:15:42;;;;;;;4.63;1.60;;;14.50;99.90;;;;;;5053683;28;20510;-71
2022/11/07 01:18:08;;;;;;;5.15;1.67;;;14.40;99.90;;;;;;5053332;28;20017;-71
2022/11/07 01:20:33;;;;;;;8.00;1.67;;;14.40;99.90;;;;;;5053856;28;20449;-71
2022/11/07 01:22:59;;;;;;;6.00;1.80;;;14.40;99.90;;;;;;5052285;28;20557;-69
2022/11/07 01:25:25;;;;;;;6.53;1.50;;;14.40;99.90;;;;;;5053157;28;20124;-65
2022/11/07 01:27:50;;;;;;;7.22;1.58;;;14.40;99.90;;;;;;5053622;28;20025;-64
2022/11/07 01:30:16;;;;;;;6.20;1.92;;;14.40;99.90;;;;;;5053433;28;20025;-61
2022/11/07 01:32:42;;;;;;;4.05;1.15;;;14.40;99.90;;;;;;5053471;28;20116;-65
2022/11/07 01:35:07;;;;;;;6.88;1.63;;;14.40;99.90;;;;;;5053440;28;20029;-66
2022/11/07 01:37:33;;;;;;;6.57;2.00;;;14.40;99.90;;;;;;5052659;28;20056;-67
2022/11/07 01:39:59;;;;;;;7.35;1.92;;;14.30;99.90;;;;;;5052771;28;20075;-64
2022/11/07 01:42:24;;;;;;;7.25;1.77;;;14.30;99.90;;;;;;5047540;28;20116;-59
2022/11/07 01:44:58;;;;;;;11.48;2.10;;;14.30;99.90;;;;;;5033828;28;20463;-59
2022/11/07 01:47:30;;;;;;;6.70;1.80;;;14.30;99.90;;;;;;5044665;28;20033;-65
2022/11/07 01:49:56;;;;;;;9.68;2.40;;;14.30;99.90;;;;;;5034418;28;20025;-69
2022/11/07 01:52:27;;;;;;;5.10;2.20;;;14.30;99.90;;;;;;5040157;28;20025;-65
2022/11/07 01:55:14;;;;;;;8.10;1.92;;;14.30;99.90;;;;;;5051933;28;20021;-64
2022/11/07 01:57:54;;;;;;;13.88;2.55;;;14.30;99.90;;;;;;5053119;28;20020;-71
2022/11/07 02:00:22;;;;;;;5.00;1.67;;;14.30;99.90;;;;;;5052771;28;20041;-71
2022/11/07 02:02:53;;;;;;;8.82;2.38;;;14.30;99.90;;;;;;5052968;28;20033;-71
2022/11/07 02:05:30;;;;;;;5.43;1.75;;;14.30;99.90;;;;;;5052637;28;20033;-72
2022/11/07 02:07:57;;;;;;;6.15;1.55;;;14.30;99.90;;;;;;5053042;28;20028;-71
2022/11/07 02:10:23;;;;;;;4.45;1.58;;;14.30;99.90;;;;;;5052729;28;20068;-71
2022/11/07 02:12:50;;;;;;;4.30;1.80;;;14.40;99.90;;;;;;5052752;28;20465;-71
2022/11/07 02:15:15;;;;;;;5.57;1.60;;;14.40;99.90;;;;;;5052612;28;20497;-71
2022/11/07 02:17:41;;;;;;;3.33;1.20;;;14.40;99.90;;;;;;5052788;28;20017;-70
2022/11/07 02:20:07;;;;;;;8.65;1.80;;;14.40;99.90;;;;;;5052705;28;20480;-70
2022/11/07 02:23:14;;;;;;;9.15;1.85;;;14.40;99.90;;;;;;5051565;28;20017;-68
2022/11/07 02:25:40;;;;;;;5.40;1.42;;;14.40;99.90;;;;;;5041852;28;20132;-71
2022/11/07 02:28:08;;;;;;;6.60;1.75;;;14.40;99.90;;;;;;5032663;28;20096;-71
2022/11/07 02:30:34;;;;;;;7.47;1.92;;;14.40;99.90;;;;;;5032631;28;20025;-71
2022/11/07 02:33:01;;;;;;;6.78;1.40;;;14.40;99.90;;;;;;5033014;28;20060;-59
2022/11/07 02:35:40;;;;;;;8.52;1.90;;;14.40;99.90;;;;;;5042241;28;20086;-59
2022/11/07 02:38:16;;;;;;;8.60;1.60;;;14.50;99.90;;;;;;5052454;28;20048;-59
2022/11/07 02:40:44;;;;;;;9.27;1.85;;;14.50;99.90;;;;;;5052618;28;20044;-67
2022/11/07 02:43:11;;;;;;;11.00;2.28;;;14.40;99.90;;;;;;5052214;28;20048;-62
2022/11/07 02:45:42;;;;;;;8.93;1.83;;;14.40;99.90;;;;;;5051856;28;20033;-64
2022/11/07 02:48:09;;;;;;;7.57;1.58;;;14.40;99.90;;;;;;5052533;28;20047;-60
2022/11/07 02:50:35;;;;;;;9.45;2.25;;;14.50;99.90;;;;;;5054777;28;20474;-61
2022/11/07 02:53:00;;;;;;;6.15;1.50;;;14.50;99.90;;;;;;5056282;28;20024;-61
2022/11/07 02:55:26;;;;;;;10.85;2.00;;;14.50;99.90;;;;;;5056483;28;20495;-60
2022/11/07 02:57:52;;;;;;;6.35;1.83;;;14.50;99.90;;;;;;5056270;28;20481;-65
2022/11/07 03:00:17;;;;;;;6.13;1.70;;;14.50;99.90;;;;;;5056032;28;20108;-63
2022/11/07 03:02:45;;;;;;;8.20;1.88;;;14.50;99.90;;;;;;5056328;28;20021;-62
2022/11/07 03:05:12;;;;;;;8.00;2.08;;;14.50;99.90;;;;;;5055889;28;20033;-60
2022/11/07 03:07:38;;;;;;;9.05;1.98;;;14.50;99.90;;;;;;5054948;28;20039;-59
2022/11/07 03:10:04;;;;;;;8.73;2.33;;;14.50;99.90;;;;;;5056134;28;20127;-59
2022/11/07 03:12:30;;;;;;;7.95;1.73;;;14.50;99.90;;;;;;5056121;28;20021;-59
2022/11/07 03:14:55;;;;;;;5.88;1.35;;;14.50;99.90;;;;;;5054856;28;20115;-60
2022/11/07 03:17:21;;;;;;;13.82;2.70;;;14.50;99.90;;;;;;5056179;28;20053;-60
2022/11/07 03:19:46;;;;;;;9.77;2.05;;;14.50;99.90;;;;;;5055704;28;20029;-59
2022/11/07 03:22:12;;;;;;;8.30;2.05;;;14.50;99.90;;;;;;5055972;28;20021;-67
2022/11/07 03:24:37;;;;;;;5.85;1.17;;;14.50;99.90;;;;;;5055839;28;20087;-68
2022/11/07 03:27:03;;;;;;;11.52;2.80;;;14.50;99.90;;;;;;5055905;28;20033;-62
2022/11/07 03:29:29;;;;;;;8.88;2.65;;;14.50;99.90;;;;;;5055701;28;20027;-59
2022/11/07 03:31:54;;;;;;;8.23;2.20;;;14.50;99.90;;;;;;5055996;28;20036;-58
2022/11/07 03:34:20;;;;;;;10.90;2.30;;;14.50;99.90;;;;;;5055191;28;20048;-61
2022/11/07 03:36:45;;;;;;;8.88;2.38;;;14.50;99.90;;;;;;5055829;28;20104;-63
2022/11/07 03:39:11;;;;;;;6.63;1.77;;;14.60;99.90;;;;;;5055478;28;20129;-60
2022/11/07 03:41:37;;;;;;;9.30;2.22;;;14.50;99.90;;;;;;5055754;28;20071;-59
2022/11/07 03:44:02;;;;;;;9.85;2.35;;;14.50;99.90;;;;;;5055421;28;20017;-62
2022/11/07 03:46:28;;;;;;;12.23;2.40;;;14.50;99.90;;;;;;5055707;28;20040;-60
2022/11/07 03:48:53;;;;;;;11.52;2.20;;;14.50;99.90;;;;;;5055241;28;20497;-56
2022/11/07 03:51:19;;;;;;;14.27;2.78;;;14.50;99.90;;;;;;5054967;28;20033;-71
2022/11/07 03:53:44;;;;;;;10.52;1.85;;;14.50;99.90;;;;;;5055280;28;20024;-68
2022/11/07 03:56:12;;;;;;;4.43;1.70;;;14.50;99.90;;;;;;5055497;28;20056;-67
2022/11/07 03:58:38;;;;;;;7.68;1.92;;;14.50;99.90;;;;;;5054796;28;20036;-65
2022/11/07 04:01:04;;;;;;;11.02;2.33;;;14.50;99.90;;;;;;5054498;28;20033;-71
2022/11/07 04:03:31;;;;;;;11.57;2.53;;;14.50;99.90;;;;;;5054888;28;20013;-67
2022/11/07 04:05:56;;;;;;;5.30;1.67;;;14.50;99.90;;;;;;5055099;28;20127;-67
2022/11/07 04:08:22;;;;;;;6.93;1.85;;;14.50;99.90;;;;;;5054710;28;20111;-69
2022/11/07 04:10:48;;;;;;;11.52;2.30;;;14.50;99.90;;;;;;5054937;28;20478;-67
2022/11/07 04:18:42;;;;;;;9.63;2.67;;;14.50;99.90;;;;;;5054809;28;20150;-70
2022/11/07 04:21:08;;;;;;;10.32;2.20;;;14.50;99.90;;;;;;5054826;28;20067;-64
2022/11/07 04:23:33;;;;;;;5.45;1.50;;;14.50;99.90;;;;;;5054837;28;20025;-70
2022/11/07 04:28:43;;;;;;;8.07;1.90;;;14.50;99.90;;;;;;5054300;28;20062;-68
2022/11/07 04:31:09;;;;;;;13.57;2.70;;;14.50;99.90;;;;;;5054048;28;20119;-70
2022/11/07 04:33:34;;;;;;;7.75;2.35;;;14.50;99.90;;;;;;5054738;28;20099;-69
2022/11/07 04:36:00;;;;;;;7.65;2.30;;;14.50;99.90;;;;;;5054317;28;20033;-70
2022/11/07 04:38:25;;;;;;;10.48;2.20;;;14.50;99.90;;;;;;5054396;28;20104;-63
2022/11/07 04:40:55;;;;;;;12.65;2.58;;;14.50;99.90;;;;;;5054189;28;20459;-68
2022/11/07 04:43:22;;;;;;;9.95;1.85;;;14.50;99.90;;;;;;5054642;28;20045;-66
2022/11/07 04:45:48;;;;;;;9.82;2.15;;;14.50;99.90;;;;;;5054056;28;20091;-67
2022/11/07 04:48:13;;;;;;;10.25;2.40;;;14.60;99.90;;;;;;5054419;28;20025;-69
2022/11/07 04:50:39;;;;;;;8.52;2.13;;;14.60;99.90;;;;;;5054169;28;20017;-68
2022/11/07 04:53:05;;;;;;;8.88;2.15;;;14.50;99.90;;;;;;5054038;28;20371;-69
2022/11/07 04:55:31;;;;;;;11.48;1.90;;;14.60;99.90;;;;;;5053780;28;20532;-70
2022/11/07 04:57:57;;;;;;;10.05;2.17;;;14.60;99.90;;;;;;5054296;28;20107;-64
2022/11/07 05:00:23;;;;;;;10.05;2.10;;;14.60;99.90;;;;;;5054059;28;20025;-71
2022/11/07 05:02:50;;;;;;;7.25;2.00;;;14.60;99.90;;;;;;5053761;28;20033;-71
2022/11/07 05:05:17;;;;;;;11.68;2.65;;;14.60;99.90;;;;;;5053527;28;20033;-66
2022/11/07 05:07:43;;;;;;;10.90;2.90;;;14.60;99.90;;;;;;5054162;28;20074;-68
2022/11/07 05:10:19;;;;;;;8.55;2.30;;;14.50;99.90;;;;;;5053547;28;20363;-60
2022/11/07 05:12:46;;;;;;;9.95;2.10;;;14.60;99.90;;;;;;5052835;28;20024;-71
2022/11/07 05:15:12;;;;;;;12.55;2.88;;;14.60;99.90;;;;;;5053708;28;20063;-64
2022/11/07 05:17:37;;;;;;;13.70;3.20;;;14.50;99.90;;;;;;5053627;28;20029;-67
2022/11/07 05:20:03;;;;;;;8.48;1.65;;;14.50;99.90;;;;;;5053728;28;20024;-66
2022/11/07 05:25:13;;;;;;;9.45;2.20;;;14.60;99.90;;;;;;5053088;28;20055;-68
2022/11/07 05:27:39;;;;;;;9.95;2.75;;;14.50;99.90;;;;;;5053749;28;20469;-67
2022/11/07 05:30:05;;;;;;;10.40;2.15;;;14.60;99.90;;;;;;5053609;28;20122;-68
2022/11/07 05:32:36;;;;;;;10.48;2.35;;;14.60;99.90;;;;;;5053293;28;20032;-67
2022/11/07 05:35:03;;;;;;;11.10;1.98;;;14.60;99.90;;;;;;5053324;28;20025;-71
2022/11/07 05:37:28;;;;;;;10.85;2.00;;;14.60;99.90;;;;;;5053411;28;20029;-70
2022/11/07 05:39:54;;;;;;;7.85;1.88;;;14.60;99.90;;;;;;5053136;28;20032;-64
2022/11/07 05:42:19;;;;;;;10.05;3.08;;;14.60;99.90;;;;;;5053067;28;20393;-69
2022/11/07 05:44:45;;;;;;;5.97;1.33;;;14.60;99.90;;;;;;5051989;28;20029;-71
2022/11/07 05:47:10;;;;;;;7.22;1.55;;;14.60;99.90;;;;;;5052908;28;20025;-70
2022/11/07 05:49:36;;;;;;;12.75;2.08;;;14.60;99.90;;;;;;5053225;28;20428;-69
2022/11/07 05:52:02;;;;;;;9.13;2.00;;;14.70;99.90;;;;;;5051405;28;20021;-71
2022/11/07 05:54:27;;;;;;;13.20;2.38;;;14.60;99.90;;;;;;5046657;28;20037;-70
2022/11/07 05:56:58;;;;;;;8.07;1.65;;;14.60;99.90;;;;;;5052665;28;20082;-72
2022/11/07 05:59:24;;;;;;;10.43;2.25;;;14.70;99.90;;;;;;5050199;28;20078;-68
2022/11/07 06:01:51;;;;;;;14.25;2.45;;;14.90;99.90;;;;;;5045294;28;20448;-71
2022/11/07 06:04:17;;;;;;;9.13;2.08;;;14.80;99.90;;;;;;5049993;28;20027;-71
2022/11/07 06:06:42;;;;;;;12.35;2.67;;;14.80;99.90;;;;;;5048485;28;20052;-66
2022/11/07 06:09:08;;;;;;;9.07;2.13;;;14.80;99.90;;;;;;5046834;28;20107;-71
2022/11/07 06:11:34;;;;;;;15.13;2.70;;;14.80;99.90;;;;;;5050580;28;20067;-67
2022/11/07 06:13:59;;;;;;;14.02;2.47;;;14.70;99.90;;;;;;5054004;28;20032;-72
2022/11/07 06:16:26;;;;;;;10.35;2.35;;;14.70;99.90;;;;;;5052745;28;20191;-73
2022/11/07 06:18:51;;;;;;;9.43;3.13;;;14.70;99.90;;;;;;5043357;28;20036;-69
2022/11/07 06:21:17;;;;;;;8.25;1.90;;;14.70;99.90;;;;;;5039842;28;20033;-67
2022/11/07 06:23:42;;;;;;;11.32;2.38;;;14.70;99.90;;;;;;5053914;28;20032;-59
2022/11/07 06:26:08;;;;;;;8.45;1.67;;;14.60;99.90;;;;;;5046808;28;20032;-72
2022/11/07 06:28:34;;;;;;;10.20;2.40;;;14.60;99.90;;;;;;5049925;28;20063;-69
2022/11/07 06:31:02;;;;;;;10.02;2.13;;;14.70;99.90;;;;;;5047155;28;20483;-67
2022/11/07 06:33:31;;;;;;;9.85;2.83;;;14.70;99.90;;;;;;5050645;28;20075;-71
2022/11/07 06:36:07;;;;;;;11.45;3.17;;;14.60;99.90;;;;;;5050786;28;20052;-68
2022/11/07 06:38:34;;;;;;;9.07;1.65;;;14.60;99.90;;;;;;5051687;28;20021;-73
2022/11/07 06:41:11;;;;;;;8.93;2.50;;;14.60;99.90;;;;;;5047851;28;20057;-71
2022/11/07 06:43:37;;;;;;;11.38;2.50;;;14.60;99.90;;;;;;5040742;28;20036;-61
2022/11/07 06:46:09;;;;;;;16.08;3.22;;;14.60;99.90;;;;;;5051291;28;20052;-72
2022/11/07 06:48:34;;;;;;;16.50;2.92;;;14.70;99.90;;;;;;5052283;28;20069;-69
2022/11/07 06:51:01;;;;;;;12.75;2.58;;;14.70;99.90;;;;;;5048511;28;20025;-72
2022/11/07 06:53:27;;;;;;;9.27;2.80;;;14.70;99.90;;;;;;5048910;28;20028;-73
2022/11/07 06:55:54;;;;;;;10.02;2.50;;;14.80;99.90;;;;;;5061868;28;20036;-72
2022/11/07 06:58:20;;;;;;;14.52;2.95;;;14.80;99.90;;;;;;5056312;28;20474;-72
2022/11/07 07:00:46;;;;;;;16.17;2.75;;;14.80;99.90;;;;;;5046218;28;20048;-72
2022/11/07 07:03:12;;;;;;;12.23;2.58;;;14.80;99.90;;;;;;5048391;28;20021;-69
2022/11/07 07:05:37;;;;;;;10.73;2.13;;;14.80;99.90;;;;;;5043809;28;20032;-64
2022/11/07 07:08:05;;;;;;;12.50;2.80;;;14.80;99.90;;;;;;5042713;28;20041;-63
2022/11/07 07:10:33;;;;;;;13.73;3.17;;;14.80;99.90;;;;;;5045600;28;20080;-71
2022/11/07 07:12:59;;;;;;;14.30;2.78;;;14.90;99.90;;;;;;5060270;28;20515;-73
2022/11/07 07:15:24;;;;;;;15.88;2.33;;;15.00;99.90;;;;;;5056170;28;20028;-74
2022/11/07 07:17:50;;;;;;;17.92;3.65;;;15.10;99.90;;;;;;5048963;28;20047;-62
2022/11/07 07:20:16;;;;;;;13.80;2.83;;;15.10;99.90;;;;;;5051597;28;20036;-66
2022/11/07 07:22:43;;;;;;;12.30;2.85;;;15.20;99.90;;;;;;5051735;28;20110;-70
2022/11/07 07:25:09;;;;;;;14.02;2.58;;;15.20;99.90;;;;;;5050646;28;20033;-75
2022/11/07 07:27:34;;;;;;;13.70;2.90;;;15.20;99.90;;;;;;5046700;28;20052;-73
2022/11/07 07:30:00;;;;;;;14.60;3.03;;;15.30;99.90;;;;;;5032364;28;20025;-74
2022/11/07 07:32:25;;;;;;;14.18;2.97;;;15.30;99.90;;;;;;5032253;28;20041;-74
2022/11/07 07:34:51;;;;;;;12.60;2.67;;;15.30;99.90;;;;;;5051313;28;20021;-74
2022/11/07 07:37:17;;;;;;;15.38;2.45;;;15.40;99.90;;;;;;5055123;28;20401;-72
2022/11/07 07:39:43;;;;;;;11.55;2.30;;;15.30;99.90;;;;;;5055521;28;20029;-74
2022/11/07 07:42:08;;;;;;;15.57;3.50;;;15.40;99.90;;;;;;5055671;28;20027;-72
2022/11/07 07:44:35;;;;;;;11.93;2.25;;;15.40;99.90;;;;;;5055309;28;20025;-71
2022/11/07 07:47:01;;;;;;;10.30;2.40;;;15.40;99.90;;;;;;5054339;28;20033;-73
2022/11/07 07:49:26;;;;;;;11.65;2.92;;;15.40;99.90;;;;;;5054610;28;20021;-74
2022/11/07 07:51:52;;;;;;;14.40;2.92;;;15.40;99.90;;;;;;5054641;28;20393;-73
2022/11/07 07:54:18;;;;;;;12.52;2.38;;;15.40;99.90;;;;;;5073712;28;20055;-70
2022/11/07 07:56:43;;;;;;;14.02;2.60;;;15.40;99.90;;;;;;5075403;28;20067;-73
2022/11/07 07:59:09;;;;;;;15.68;2.15;;;15.40;99.90;;;;;;5075273;28;20054;-74
2022/11/07 08:01:34;;;;;;;9.23;2.47;;;15.40;99.90;;;;;;5075239;28;20032;-73
2022/11/07 08:04:00;;;;;;;9.00;2.08;;;15.40;99.90;;;;;;5061247;28;20108;-74
2022/11/07 08:06:25;;;;;;;11.02;2.80;;;15.40;99.90;;;;;;5053695;28;20040;-71
2022/11/07 08:08:51;;;;;;;13.10;2.63;;;15.40;99.90;;;;;;5054525;28;20082;-74
2022/11/07 08:11:17;;;;;;;12.00;2.75;;;15.40;99.90;;;;;;5055139;28;20198;-71
2022/11/07 08:13:42;;;;;;;11.23;2.25;;;15.40;99.90;;;;;;5055244;28;20021;-74
2022/11/07 08:16:08;;;;;;;9.07;2.08;;;15.40;99.90;;;;;;5054996;28;20032;-74
2022/11/07 08:18:35;;;;;;;8.88;2.97;;;15.40;99.90;;;;;;5053244;28;20390;-74
2022/11/07 08:21:01;;;;;;;10.85;2.70;;;15.40;99.90;;;;;;5054987;28;20025;-74
2022/11/07 08:23:26;;;;;;;8.77;2.80;;;15.40;99.90;;;;;;5052967;28;20028;-73
2022/11/07 08:25:57;;;;;;;9.23;2.35;;;15.40;99.90;;;;;;5052654;28;20494;-69
2022/11/07 08:28:26;;;;;;;11.30;2.67;;;15.50;99.90;;;;;;5052466;28;20045;-73
2022/11/07 08:31:00;;;;;;;8.93;2.25;;;15.40;99.90;;;;;;5061102;28;20020;-73
2022/11/07 08:33:26;;;;;;;12.57;2.72;;;15.40;99.90;;;;;;5059196;28;20108;-68
2022/11/07 08:35:59;;;;;;;12.55;2.67;;;15.40;99.90;;;;;;5053678;28;20390;-70
2022/11/07 08:38:25;;;;;;;11.25;2.90;;;15.40;99.90;;;;;;5052349;28;20433;-71
2022/11/07 08:40:51;;;;;;;12.35;2.85;;;15.40;99.90;;;;;;5050895;28;20029;-71
2022/11/07 08:43:18;;;;;;;9.55;2.50;;;15.40;99.90;;;;;;5054339;28;20075;-73
2022/11/07 08:45:44;;;;;;;9.52;2.00;;;15.50;99.90;;;;;;5053773;28;20036;-69
2022/11/07 08:48:10;;;;;;;16.15;3.13;;;15.50;99.90;;;;;;5049929;28;20028;-72
2022/11/07 08:50:36;;;;;;;33.25;5.15;;;15.50;99.90;;;;;;5051176;28;20094;-69
2022/11/07 08:53:01;;;;;;;71.15;8.95;;;15.40;99.90;;;;;;5050841;28;20033;-72
2022/11/07 08:55:27;;;;;;;41.55;5.22;;;15.50;99.90;;;;;;5053883;28;20044;-74
2022/11/07 08:58:01;;;;;;;26.35;4.20;;;15.50;99.90;;;;;;5052983;28;20029;-71
2022/11/07 09:00:26;;;;;;;25.20;3.60;;;15.50;99.90;;;;;;5068998;28;20398;-71
2022/11/07 09:02:52;;;;;;;17.60;3.63;;;15.50;99.90;;;;;;5053857;28;20519;-71
2022/11/07 09:05:18;;;;;;;15.20;3.65;;;15.50;99.90;;;;;;5053653;28;20037;-71
2022/11/07 09:07:43;;;;;;;18.23;3.42;;;15.50;99.90;;;;;;5053762;28;20105;-69
2022/11/07 09:10:10;;;;;;;17.80;3.30;;;15.50;99.90;;;;;;5051246;28;20057;-69
2022/11/07 09:12:45;;;;;;;17.50;4.18;;;15.50;99.90;;;;;;5051052;28;20034;-65
2022/11/07 09:15:11;;;;;;;23.67;4.30;;;15.50;99.90;;;;;;5059721;28;20042;-69
2022/11/07 09:17:37;;;;;;;15.05;3.38;;;15.50;99.90;;;;;;5070279;28;20040;-68
2022/11/07 09:20:03;;;;;;;22.33;3.13;;;15.60;99.90;;;;;;5060941;28;20044;-69
2022/11/07 09:22:29;;;;;;;15.07;3.00;;;15.60;99.90;;;;;;5059616;28;20043;-71
2022/11/07 09:24:54;;;;;;;16.50;3.15;;;15.60;99.90;;;;;;5053197;28;20491;-72
2022/11/07 09:27:20;;;;;;;13.23;2.67;;;15.60;99.90;;;;;;5062495;28;20039;-72
2022/11/07 09:29:45;;;;;;;48.30;6.95;;;15.60;99.90;;;;;;5073264;28;20104;-71
2022/11/07 09:32:11;;;;;;;40.42;6.50;;;15.60;99.90;;;;;;5055763;28;20036;-69
2022/11/07 09:34:36;;;;;;;30.15;5.97;;;15.70;99.90;;;;;;5058397;28;20025;-63
2022/11/07 09:37:02;;;;;;;35.13;7.22;;;15.70;99.90;;;;;;5051809;28;20064;-71
2022/11/07 09:39:28;;;;;;;29.95;5.72;;;15.70;99.90;;;;;;5053270;28;20396;-71
2022/11/07 09:41:59;;;;;;;39.08;5.90;;;15.70;99.90;;;;;;5052821;28;20079;-71
2022/11/07 09:44:36;;;;;;;35.40;5.03;;;15.70;99.90;;;;;;5051477;28;20048;-72
2022/11/07 09:47:09;;;;;;;28.98;5.90;;;15.70;99.90;;;;;;5050146;28;20314;-73
2022/11/07 09:50:00;;;;;;;31.40;6.70;;;15.80;99.90;;;;;;5032916;28;20022;-72
2022/11/07 09:52:53;;;;;;;23.80;4.50;;;15.80;99.90;;;;;;5068362;28;20421;-72
2022/11/07 09:55:43;;;;;;;27.50;4.68;;;15.80;99.90;;;;;;5064497;28;20029;-72
2022/11/07 09:58:50;;;;;;;26.65;4.82;;;15.80;99.90;;;;;;5052516;28;20048;-70
2022/11/07 10:01:19;;;;;;;24.70;3.50;;;15.90;99.90;;;;;;5056303;28;20052;-72
2022/11/07 10:03:45;;;;;;;20.92;3.92;;;15.80;99.90;;;;;;5052820;28;20021;-71
2022/11/07 10:06:37;;;;;;;25.65;4.10;;;15.80;99.90;;;;;;5052825;28;20385;-63
2022/11/07 10:09:21;;;;;;;23.42;3.80;;;15.90;99.90;;;;;;5052601;28;20069;-71
2022/11/07 10:13:00;;;;;;;17.67;3.50;;;15.90;99.90;;;;;;5052645;28;20055;-72
2022/11/07 10:15:51;;;;;;;15.68;2.80;;;15.90;99.90;;;;;;5025967;28;20090;-71
2022/11/07 10:18:37;;;;;;;21.45;3.53;;;15.90;99.90;;;;;;5009347;28;20110;-68
2022/11/07 10:21:13;;;;;;;17.88;2.88;;;16.00;99.90;;;;;;5027826;28;20087;-66
2022/11/07 10:23:38;;;;;;;21.08;3.50;;;16.00;99.90;;;;;;5032917;28;20045;-71
2022/11/07 10:26:11;;;;;;;16.25;2.97;;;16.00;99.90;;;;;;5032694;28;20045;-71
2022/11/07 10:28:58;;;;;;;13.23;3.20;;;16.00;99.90;;;;;;5032636;28;20021;-63
2022/11/07 10:31:38;;;;;;;17.10;3.67;;;16.00;99.90;;;;;;5032823;28;20021;-60
2022/11/07 10:34:19;;;;;;;11.25;3.00;;;16.00;99.90;;;;;;5048141;28;20474;-65
2022/11/07 10:36:44;;;;;;;15.60;3.45;;;16.10;99.90;;;;;;5052301;28;20037;-60
2022/11/07 10:39:18;;;;;;;13.57;3.08;;;16.10;99.90;;;;;;5052395;28;20108;-69
2022/11/07 10:41:56;;;;;;;15.85;2.85;;;16.10;99.90;;;;;;5059171;28;20029;-65
2022/11/07 10:44:26;;;;;;;16.65;2.95;;;16.10;99.90;;;;;;5069945;28;20023;-66
2022/11/07 10:46:51;;;;;;;17.27;3.95;;;16.10;99.90;;;;;;5051577;28;20489;-64
2022/11/07 10:49:31;;;;;;;15.35;2.90;;;16.20;99.90;;;;;;5052198;28;20029;-67
2022/11/07 10:52:08;;;;;;;16.73;3.85;;;16.30;99.90;;;;;;5052948;28;20060;-65
2022/11/07 10:54:34;;;;;;;21.63;4.43;;;16.40;99.90;;;;;;5051410;28;20083;-67
2022/11/07 10:57:09;;;;;;;19.88;4.30;;;16.40;99.90;;;;;;5049991;28;20033;-62
2022/11/07 10:59:43;;;;;;;28.63;4.95;;;16.50;99.90;;;;;;5063727;28;20028;-72
2022/11/07 11:02:44;;;;;;;27.92;4.38;;;16.60;99.90;;;;;;5069751;28;20039;-68
2022/11/07 11:05:29;;;;;;;27.63;4.35;;;16.60;99.90;;;;;;5048564;28;20072;-68
2022/11/07 11:08:06;;;;;;;15.70;2.67;;;16.70;99.90;;;;;;5052204;28;20037;-72
2022/11/07 11:10:37;;;;;;;22.52;3.83;;;16.70;99.90;;;;;;5053179;28;20052;-69
2022/11/07 11:13:02;;;;;;;24.77;4.35;;;16.80;99.90;;;;;;5055733;28;20079;-65
2022/11/07 11:15:29;;;;;;;14.48;3.05;;;16.80;99.90;;;;;;5056191;28;20017;-67
2022/11/07 11:18:04;;;;;;;16.70;3.78;;;16.80;99.90;;;;;;5056110;28;20033;-72
2022/11/07 11:21:00;;;;;;;17.35;3.50;;;16.90;99.90;;;;;;5055475;28;20466;-68
2022/11/07 11:23:29;;;;;;;16.48;3.17;;;16.90;99.90;;;;;;5055912;28;20032;-61
2022/11/07 11:26:13;;;;;;;26.85;4.20;;;16.90;99.90;;;;;;5055406;28;20498;-74
2022/11/07 11:28:44;;;;;;;15.52;3.13;;;16.90;99.90;;;;;;5054749;28;20029;-74
2022/11/07 11:31:24;;;;;;;20.63;3.13;;;16.90;99.90;;;;;;5055793;28;20032;-73
2022/11/07 11:33:57;;;;;;;15.63;3.38;;;17.00;99.90;;;;;;5056816;28;20029;-71
2022/11/07 11:36:31;;;;;;;15.63;3.38;;;16.90;99.90;;;;;;5052143;28;20036;-64
2022/11/07 11:39:01;;;;;;;16.23;3.00;;;16.90;99.90;;;;;;5055637;28;20389;-70
2022/11/07 11:41:58;;;;;;;20.88;3.05;;;16.90;99.90;;;;;;5075440;28;20021;-67
2022/11/07 11:44:41;;;;;;;15.27;2.72;;;16.90;99.90;;;;;;5075556;28;20096;-74
2022/11/07 11:47:07;;;;;;;13.35;3.58;;;16.90;99.90;;;;;;5074446;28;20077;-68
2022/11/07 11:50:03;;;;;;;15.90;3.70;;;16.90;99.90;;;;;;5054390;28;20420;-71
2022/11/07 11:52:32;;;;;;;11.73;3.03;;;16.90;99.90;;;;;;5054247;28;20033;-71
2022/11/07 11:54:59;;;;;;;10.95;2.35;;;16.90;99.90;;;;;;5054910;28;20017;-73
2022/11/07 11:57:50;;;;;;;15.23;3.15;;;16.90;99.90;;;;;;5055383;28;20029;-69
2022/11/07 12:00:22;;;;;;;11.45;2.90;;;17.00;99.90;;;;;;5055482;28;20079;-74
2022/11/07 12:03:06;;;;;;;12.05;2.42;;;16.90;99.90;;;;;;5055336;28;20013;-74
2022/11/07 12:06:02;;;;;;;15.30;3.45;;;17.00;99.90;;;;;;5054446;28;20128;-71
2022/11/07 12:08:48;;;;;;;11.80;2.47;;;17.00;99.90;;;;;;5035093;28;20117;-69
2022/11/07 12:11:36;;;;;;;10.02;2.47;;;16.90;99.90;;;;;;5033679;28;20030;-73
2022/11/07 12:14:39;;;;;;;9.02;2.38;;;17.00;99.90;;;;;;5048961;28;20036;-62
2022/11/07 12:17:19;;;;;;;9.07;2.28;;;17.00;99.90;;;;;;5035106;28;20079;-74
2022/11/07 12:19:49;;;;;;;14.75;2.58;;;17.00;99.90;;;;;;5034968;28;20021;-71
2022/11/07 12:22:32;;;;;;;11.73;2.60;;;17.00;99.90;;;;;;5045585;28;20028;-74
2022/11/07 12:24:58;;;;;;;11.02;2.53;;;17.00;99.90;;;;;;5054102;28;20052;-61
2022/11/07 12:27:32;;;;;;;10.27;2.47;;;16.90;99.90;;;;;;5054823;28;20028;-71
2022/11/07 12:30:03;;;;;;;7.47;2.20;;;17.00;99.90;;;;;;5054638;28;20074;-71
2022/11/07 12:32:42;;;;;;;13.70;2.80;;;17.00;99.90;;;;;;5054693;28;20021;-73
2022/11/07 12:35:41;;;;;;;8.35;2.40;;;17.00;99.90;;;;;;5054259;28;20013;-74
2022/11/07 12:38:48;;;;;;;12.15;2.33;;;17.00;99.90;;;;;;5054378;28;20087;-65
2022/11/07 12:41:16;;;;;;;7.95;2.03;;;17.00;99.90;;;;;;5054478;28;20025;-73
2022/11/07 12:43:54;;;;;;;8.43;2.08;;;17.00;99.90;;;;;;5054586;28;20471;-66
2022/11/07 12:46:44;;;;;;;7.03;1.95;;;17.00;99.90;;;;;;5053683;28;20033;-65
2022/11/07 12:49:22;;;;;;;12.43;3.03;;;17.00;99.90;;;;;;5054164;28;20082;-65
2022/11/07 12:52:01;;;;;;;7.00;1.90;;;17.00;99.90;;;;;;5051202;28;20697;-73
2022/11/07 12:54:32;;;;;;;10.57;2.40;;;17.10;99.90;;;;;;5051319;28;20122;-65
2022/11/07 12:57:01;;;;;;;6.70;2.43;;;17.00;99.90;;;;;;5069860;28;20370;-73
2022/11/07 12:59:30;;;;;;;9.20;2.25;;;17.00;99.90;;;;;;5056152;28;20025;-73
2022/11/07 13:01:58;;;;;;;9.82;2.22;;;17.10;99.90;;;;;;5055796;28;20048;-61
2022/11/07 13:04:37;;;;;;;9.18;2.30;;;17.00;99.90;;;;;;5066525;28;20477;-63
2022/11/07 13:07:14;;;;;;;8.35;2.08;;;17.10;99.90;;;;;;5033526;28;20037;-63
2022/11/07 13:09:48;;;;;;;9.98;2.20;;;17.10;99.90;;;;;;5038081;28;20470;-67